Time;durP1;ratioP1;P1;durP2;ratioP2;P2;SDS_P1;SDS_P2;PMS_P1;PMS_P2;Temp;Humidity;BMP_temperature;BMP_pressure;BME280_temperature;BME280_humidity;BME280_pressure;Samples;Min_cycle;Max_cycle;Signal;HPM_P1;HPM_P2
2023/07/28 00:00:21;;;;;;;;;;;;;;;;;;1271945;23;19904;-17
2023/07/28 00:00:51;;;;;;;;;;;;;;;;;;1271729;23;19911;-20
2023/07/28 00:01:21;;;;;;;;;;;;;;;;;;1272005;23;19905;-19
2023/07/28 00:01:52;;;;;;;;;;;;;;;;;;1271734;23;19916;-19
2023/07/28 00:02:22;;;;;;;;;;;;;;;;;;1271852;23;19935;-20
2023/07/28 00:02:52;;;;;;;;;;;;;;;;;;1271337;23;19913;-17
2023/07/28 00:03:22;;;;;;;;;;;;;;;;;;1271661;23;19936;-17
2023/07/28 00:03:52;;;;;;;;;;;;;;;;;;1271736;23;19987;-20
2023/07/28 00:04:23;;;;;;;;;;;;;;;;;;1271838;23;19905;-18
2023/07/28 00:04:53;;;;;;;;;;;;;;;;;;1271714;23;19904;-17
2023/07/28 00:05:23;;;;;;;;;;;;;;;;;;1271902;23;19905;-18
2023/07/28 00:05:53;;;;;;;;;;;;;;;;;;1271648;23;19912;-19
2023/07/28 00:06:24;;;;;;;;;;;;;;;;;;1271932;23;20335;-18
2023/07/28 00:06:54;;;;;;;;;;;;;;;;;;1271729;23;20219;-19
2023/07/28 00:07:24;;;;;;;;;;;;;;;;;;1271981;23;20282;-18
2023/07/28 00:07:54;;;;;;;;;;;;;;;;;;1271731;23;20345;-18
2023/07/28 00:08:24;;;;;;;;;;;;;;;;;;1272008;23;20237;-18
2023/07/28 00:08:55;;;;;;;;;;;;;;;;;;1271786;23;19987;-16
2023/07/28 00:09:25;;;;;;;;;;;;;;;;;;1271966;23;19991;-16
2023/07/28 00:09:55;;;;;;;;;;;;;;;;;;1271755;23;19987;-20
2023/07/28 00:10:25;;;;;;;;;;;;;;;;;;1271908;23;19911;-17
2023/07/28 00:10:56;;;;;;;;;;;;;;;;;;1271685;23;19905;-20
2023/07/28 00:11:26;;;;;;;;;;;;;;;;;;1271971;23;19905;-18
2023/07/28 00:11:56;;;;;;;;;;;;;;;;;;1271726;23;19912;-18
2023/07/28 00:12:26;;;;;;;;;;;;;;;;;;1271825;23;19905;-18
2023/07/28 00:12:57;;;;;;;;;;;;;;;;;;1271716;23;19911;-19
2023/07/28 00:13:27;;;;;;;;;;;;;;;;;;1271879;23;19905;-20
2023/07/28 00:13:57;;;;;;;;;;;;;;;;;;1271721;23;19905;-17
2023/07/28 00:14:28;;;;;;;;;;;;;;;;;;1271915;23;19905;-15
2023/07/28 00:14:59;;;;;;;;;;;;;;;;;;1271673;23;19912;-20
2023/07/28 00:15:30;;;;;;;;;;;;;;;;;;1271815;23;19995;-18
2023/07/28 00:16:00;;;;;;;;;;;;;;;;;;1271685;23;19946;-18
2023/07/28 00:16:30;;;;;;;;;;;;;;;;;;1271900;23;19928;-17
2023/07/28 00:17:00;;;;;;;;;;;;;;;;;;1271673;23;19904;-15
2023/07/28 00:17:31;;;;;;;;;;;;;;;;;;1271860;23;19919;-20
2023/07/28 00:18:01;;;;;;;;;;;;;;;;;;1271705;23;19935;-16
2023/07/28 00:18:31;;;;;;;;;;;;;;;;;;1271905;23;19904;-19
2023/07/28 00:19:02;;;;;;;;;;;;;;;;;;1271736;23;20260;-19
2023/07/28 00:19:32;;;;;;;;;;;;;;;;;;1271875;23;19935;-17
2023/07/28 00:20:03;;;;;;;;;;;;;;;;;;1271662;23;19904;-17
2023/07/28 00:20:33;;;;;;;;;;;;;;;;;;1271765;23;19908;-20
2023/07/28 00:21:03;;;;;;;;;;;;;;;;;;1271719;23;19912;-19
2023/07/28 00:21:33;;;;;;;;;;;;;;;;;;1271971;23;19904;-18
2023/07/28 00:22:03;;;;;;;;;;;;;;;;;;1271675;23;19993;-20
2023/07/28 00:22:34;;;;;;;;;;;;;;;;;;1272074;23;19905;-18
2023/07/28 00:23:04;;;;;;;;;;;;;;;;;;1271643;23;20278;-18
2023/07/28 00:23:34;;;;;;;;;;;;;;;;;;1271901;23;20244;-15
2023/07/28 00:24:04;;;;;;;;;;;;;;;;;;1271659;23;19905;-17
2023/07/28 00:24:35;;;;;;;;;;;;;;;;;;1271949;23;19905;-17
2023/07/28 00:25:05;;;;;;;;;;;;;;;;;;1271687;23;19905;-16
2023/07/28 00:25:35;;;;;;;;;;;;;;;;;;1271859;23;19915;-20
2023/07/28 00:26:05;;;;;;;;;;;;;;;;;;1271651;23;19940;-18
2023/07/28 00:26:35;;;;;;;;;;;;;;;;;;1271914;23;20313;-18
2023/07/28 00:27:06;;;;;;;;;;;;;;;;;;1271706;23;20343;-18
2023/07/28 00:27:36;;;;;;;;;;;;;;;;;;1271904;23;19928;-15
2023/07/28 00:28:06;;;;;;;;;;;;;;;;;;1271600;23;19911;-15
2023/07/28 00:28:36;;;;;;;;;;;;;;;;;;1271920;23;19904;-18
2023/07/28 00:29:07;;;;;;;;;;;;;;;;;;1271696;23;19904;-21
2023/07/28 00:29:37;;;;;;;;;;;;;;;;;;1271836;23;19905;-19
2023/07/28 00:30:07;;;;;;;;;;;;;;;;;;1271743;23;19983;-19
2023/07/28 00:30:38;;;;;;;;;;;;;;;;;;1271882;23;19908;-18
2023/07/28 00:31:08;;;;;;;;;;;;;;;;;;1271752;23;19905;-19
2023/07/28 00:31:38;;;;;;;;;;;;;;;;;;1271849;23;19912;-21
2023/07/28 00:32:08;;;;;;;;;;;;;;;;;;1271744;23;20009;-20
2023/07/28 00:32:38;;;;;;;;;;;;;;;;;;1271795;23;19913;-21
2023/07/28 00:33:09;;;;;;;;;;;;;;;;;;1271695;23;19904;-20
2023/07/28 00:33:39;;;;;;;;;;;;;;;;;;1271828;23;19979;-17
2023/07/28 00:34:09;;;;;;;;;;;;;;;;;;1271705;23;19991;-18
2023/07/28 00:34:39;;;;;;;;;;;;;;;;;;1271824;23;19909;-17
2023/07/28 00:35:10;;;;;;;;;;;;;;;;;;1271623;23;19904;-20
2023/07/28 00:35:40;;;;;;;;;;;;;;;;;;1271896;23;19908;-19
2023/07/28 00:36:10;;;;;;;;;;;;;;;;;;1271699;23;19911;-20
2023/07/28 00:36:40;;;;;;;;;;;;;;;;;;1271890;23;19916;-15
2023/07/28 00:37:11;;;;;;;;;;;;;;;;;;1271663;23;19912;-16
2023/07/28 00:37:41;;;;;;;;;;;;;;;;;;1271700;23;19909;-18
2023/07/28 00:38:11;;;;;;;;;;;;;;;;;;1271748;23;20336;-20
2023/07/28 00:38:41;;;;;;;;;;;;;;;;;;1271937;23;20299;-16
2023/07/28 00:39:12;;;;;;;;;;;;;;;;;;1271788;23;20215;-19
2023/07/28 00:39:42;;;;;;;;;;;;;;;;;;1271831;23;19913;-19
2023/07/28 00:40:12;;;;;;;;;;;;;;;;;;1271674;23;20245;-18
2023/07/28 00:40:42;;;;;;;;;;;;;;;;;;1271886;23;20244;-17
2023/07/28 00:41:12;;;;;;;;;;;;;;;;;;1271710;23;19991;-20
2023/07/28 00:41:43;;;;;;;;;;;;;;;;;;1271887;23;19908;-17
2023/07/28 00:42:13;;;;;;;;;;;;;;;;;;1271709;23;19941;-18
2023/07/28 00:42:43;;;;;;;;;;;;;;;;;;1271830;23;19912;-19
2023/07/28 00:43:13;;;;;;;;;;;;;;;;;;1271550;23;19987;-18
2023/07/28 00:43:44;;;;;;;;;;;;;;;;;;1271664;23;19908;-20
2023/07/28 00:44:16;;;;;;;;;;;;;;;;;;1271748;23;19911;-19
2023/07/28 00:44:46;;;;;;;;;;;;;;;;;;1271796;23;19908;-19
2023/07/28 00:45:17;;;;;;;;;;;;;;;;;;1271652;23;20325;-18
2023/07/28 00:45:47;;;;;;;;;;;;;;;;;;1271897;23;20244;-18
2023/07/28 00:46:17;;;;;;;;;;;;;;;;;;1271718;23;20210;-19
2023/07/28 00:46:47;;;;;;;;;;;;;;;;;;1271855;23;19931;-18
2023/07/28 00:47:17;;;;;;;;;;;;;;;;;;1271762;23;19927;-16
2023/07/28 00:47:48;;;;;;;;;;;;;;;;;;1271849;23;19909;-16
2023/07/28 00:48:20;;;;;;;;;;;;;;;;;;1271699;23;19934;-20
2023/07/28 00:48:50;;;;;;;;;;;;;;;;;;1271592;23;19905;-19
2023/07/28 00:49:20;;;;;;;;;;;;;;;;;;1271846;23;20332;-18
2023/07/28 00:49:50;;;;;;;;;;;;;;;;;;1271639;23;20233;-18
2023/07/28 00:50:21;;;;;;;;;;;;;;;;;;1271801;23;20276;-20
2023/07/28 00:50:52;;;;;;;;;;;;;;;;;;1271655;23;20336;-20
2023/07/28 00:51:22;;;;;;;;;;;;;;;;;;1271811;23;20219;-20
2023/07/28 00:51:52;;;;;;;;;;;;;;;;;;1271634;23;19919;-20
2023/07/28 00:52:23;;;;;;;;;;;;;;;;;;1271908;23;19905;-19
2023/07/28 00:52:53;;;;;;;;;;;;;;;;;;1271685;23;20240;-17
2023/07/28 00:53:23;;;;;;;;;;;;;;;;;;1271902;23;20241;-19
2023/07/28 00:53:53;;;;;;;;;;;;;;;;;;1271626;23;20222;-19
2023/07/28 00:54:24;;;;;;;;;;;;;;;;;;1271722;23;20305;-18
2023/07/28 00:54:54;;;;;;;;;;;;;;;;;;1271643;23;19905;-19
2023/07/28 00:55:24;;;;;;;;;;;;;;;;;;1271863;23;20321;-20
2023/07/28 00:55:54;;;;;;;;;;;;;;;;;;1271649;23;19904;-19
2023/07/28 00:56:25;;;;;;;;;;;;;;;;;;1271818;23;20031;-18
2023/07/28 00:56:55;;;;;;;;;;;;;;;;;;1271639;23;19951;-18
2023/07/28 00:57:25;;;;;;;;;;;;;;;;;;1271769;23;19909;-18
2023/07/28 00:57:55;;;;;;;;;;;;;;;;;;1271574;23;19905;-19
2023/07/28 00:58:25;;;;;;;;;;;;;;;;;;1271938;23;19936;-20
2023/07/28 00:58:56;;;;;;;;;;;;;;;;;;1271539;23;19980;-18
2023/07/28 00:59:26;;;;;;;;;;;;;;;;;;1271923;23;20332;-17
2023/07/28 00:59:56;;;;;;;;;;;;;;;;;;1271648;23;20277;-19
2023/07/28 01:00:26;;;;;;;;;;;;;;;;;;1271914;23;20325;-20
2023/07/28 01:00:57;;;;;;;;;;;;;;;;;;1271688;23;20260;-18
2023/07/28 01:01:27;;;;;;;;;;;;;;;;;;1271890;23;19905;-19
2023/07/28 01:01:57;;;;;;;;;;;;;;;;;;1271472;23;19912;-17
2023/07/28 01:02:27;;;;;;;;;;;;;;;;;;1271928;23;19911;-17
2023/07/28 01:02:58;;;;;;;;;;;;;;;;;;1271705;23;19905;-17
2023/07/28 01:03:28;;;;;;;;;;;;;;;;;;1271929;23;19939;-18
2023/07/28 01:03:58;;;;;;;;;;;;;;;;;;1271618;23;19986;-17
2023/07/28 01:04:28;;;;;;;;;;;;;;;;;;1271899;23;19904;-18
2023/07/28 01:04:58;;;;;;;;;;;;;;;;;;1271596;23;19911;-20
2023/07/28 01:05:29;;;;;;;;;;;;;;;;;;1271752;23;19908;-18
2023/07/28 01:05:59;;;;;;;;;;;;;;;;;;1271673;23;19984;-17
2023/07/28 01:06:29;;;;;;;;;;;;;;;;;;1271777;23;19905;-18
2023/07/28 01:06:59;;;;;;;;;;;;;;;;;;1271676;23;19912;-19
2023/07/28 01:07:30;;;;;;;;;;;;;;;;;;1271893;23;19905;-20
2023/07/28 01:08:00;;;;;;;;;;;;;;;;;;1271635;23;19947;-19
2023/07/28 01:08:30;;;;;;;;;;;;;;;;;;1271830;23;20007;-17
2023/07/28 01:09:00;;;;;;;;;;;;;;;;;;1271562;23;19905;-18
2023/07/28 01:09:31;;;;;;;;;;;;;;;;;;1271908;23;20215;-19
2023/07/28 01:10:01;;;;;;;;;;;;;;;;;;1271712;23;20233;-20
2023/07/28 01:10:32;;;;;;;;;;;;;;;;;;1271850;23;20241;-17
2023/07/28 01:11:03;;;;;;;;;;;;;;;;;;1271606;23;20309;-18
2023/07/28 01:11:33;;;;;;;;;;;;;;;;;;1271849;23;19963;-19
2023/07/28 01:12:03;;;;;;;;;;;;;;;;;;1271613;23;19912;-17
2023/07/28 01:12:33;;;;;;;;;;;;;;;;;;1271866;23;19904;-17
2023/07/28 01:13:04;;;;;;;;;;;;;;;;;;1271487;23;19957;-20
2023/07/28 01:13:34;;;;;;;;;;;;;;;;;;1271941;23;20238;-21
2023/07/28 01:14:04;;;;;;;;;;;;;;;;;;1271568;23;19943;-19
2023/07/28 01:14:35;;;;;;;;;;;;;;;;;;1271696;23;19949;-16
2023/07/28 01:15:05;;;;;;;;;;;;;;;;;;1271621;23;19911;-16
2023/07/28 01:15:35;;;;;;;;;;;;;;;;;;1271788;23;19916;-20
2023/07/28 01:16:05;;;;;;;;;;;;;;;;;;1271601;23;19905;-20
2023/07/28 01:16:36;;;;;;;;;;;;;;;;;;1271885;23;19905;-17
2023/07/28 01:17:06;;;;;;;;;;;;;;;;;;1271486;23;19912;-18
2023/07/28 01:17:36;;;;;;;;;;;;;;;;;;1271786;23;19913;-18
2023/07/28 01:18:06;;;;;;;;;;;;;;;;;;1271510;23;19908;-16
2023/07/28 01:18:37;;;;;;;;;;;;;;;;;;1271869;23;19996;-18
2023/07/28 01:19:07;;;;;;;;;;;;;;;;;;1271639;23;20018;-20
2023/07/28 01:19:37;;;;;;;;;;;;;;;;;;1271813;23;19943;-17
2023/07/28 01:20:07;;;;;;;;;;;;;;;;;;1271630;23;19991;-16
2023/07/28 01:20:38;;;;;;;;;;;;;;;;;;1271737;23;19970;-15
2023/07/28 01:21:08;;;;;;;;;;;;;;;;;;1271579;23;19969;-16
2023/07/28 01:21:38;;;;;;;;;;;;;;;;;;1271163;23;19909;-18
2023/07/28 01:22:08;;;;;;;;;;;;;;;;;;1264984;23;19905;-19
2023/07/28 01:22:38;;;;;;;;;;;;;;;;;;1265425;23;20262;-19
2023/07/28 01:23:09;;;;;;;;;;;;;;;;;;1265010;23;20281;-18
2023/07/28 01:23:39;;;;;;;;;;;;;;;;;;1264553;23;20281;-19
2023/07/28 01:24:10;;;;;;;;;;;;;;;;;;1271087;23;19905;-17
2023/07/28 01:24:40;;;;;;;;;;;;;;;;;;1271345;23;19915;-19
2023/07/28 01:25:10;;;;;;;;;;;;;;;;;;1271325;23;19904;-18
2023/07/28 01:25:41;;;;;;;;;;;;;;;;;;1271455;23;20393;-17
2023/07/28 01:26:12;;;;;;;;;;;;;;;;;;1271544;23;19938;-20
2023/07/28 01:26:42;;;;;;;;;;;;;;;;;;1271708;23;19919;-20
2023/07/28 01:27:12;;;;;;;;;;;;;;;;;;1271432;23;19913;-20
2023/07/28 01:27:42;;;;;;;;;;;;;;;;;;1271358;23;19919;-18
2023/07/28 01:28:13;;;;;;;;;;;;;;;;;;1271645;23;19987;-20
2023/07/28 01:28:43;;;;;;;;;;;;;;;;;;1271881;23;19915;-19
2023/07/28 01:29:14;;;;;;;;;;;;;;;;;;1271557;23;20307;-18
2023/07/28 01:29:45;;;;;;;;;;;;;;;;;;1271566;23;19916;-21
2023/07/28 01:30:15;;;;;;;;;;;;;;;;;;1271508;23;19911;-17
2023/07/28 01:30:45;;;;;;;;;;;;;;;;;;1271225;23;19909;-16
2023/07/28 01:31:15;;;;;;;;;;;;;;;;;;1271452;23;19911;-16
2023/07/28 01:31:46;;;;;;;;;;;;;;;;;;1271750;23;20321;-20
2023/07/28 01:32:16;;;;;;;;;;;;;;;;;;1271515;23;19927;-18
2023/07/28 01:32:47;;;;;;;;;;;;;;;;;;1271463;23;19958;-19
2023/07/28 01:33:17;;;;;;;;;;;;;;;;;;1268549;23;19970;-18
2023/07/28 01:33:47;;;;;;;;;;;;;;;;;;1270650;23;20275;-17
2023/07/28 01:34:17;;;;;;;;;;;;;;;;;;1271573;23;20021;-16
2023/07/28 01:34:47;;;;;;;;;;;;;;;;;;1271552;23;19908;-20
2023/07/28 01:35:18;;;;;;;;;;;;;;;;;;1271312;23;19927;-18
2023/07/28 01:35:48;;;;;;;;;;;;;;;;;;1271716;23;19909;-19
2023/07/28 01:36:18;;;;;;;;;;;;;;;;;;1271648;23;19905;-19
2023/07/28 01:36:49;;;;;;;;;;;;;;;;;;1271629;23;19967;-19
2023/07/28 01:37:19;;;;;;;;;;;;;;;;;;1271506;23;19904;-19
2023/07/28 01:37:52;;;;;;;;;;;;;;;;;;1271383;23;19987;-19
2023/07/28 01:38:22;;;;;;;;;;;;;;;;;;1271910;23;19904;-17
2023/07/28 01:38:53;;;;;;;;;;;;;;;;;;1271435;23;20233;-19
2023/07/28 01:39:24;;;;;;;;;;;;;;;;;;1271821;23;20360;-19
2023/07/28 01:39:54;;;;;;;;;;;;;;;;;;1271352;23;19904;-20
2023/07/28 01:40:24;;;;;;;;;;;;;;;;;;1271808;23;19912;-20
2023/07/28 01:40:55;;;;;;;;;;;;;;;;;;1271559;23;19905;-20
2023/07/28 01:41:25;;;;;;;;;;;;;;;;;;1271762;23;20283;-18
2023/07/28 01:41:55;;;;;;;;;;;;;;;;;;1271516;23;20240;-19
2023/07/28 01:42:25;;;;;;;;;;;;;;;;;;1271832;23;20241;-18
2023/07/28 01:42:56;;;;;;;;;;;;;;;;;;1271534;23;19905;-16
2023/07/28 01:43:26;;;;;;;;;;;;;;;;;;1271697;23;19953;-20
2023/07/28 01:43:56;;;;;;;;;;;;;;;;;;1271579;23;20003;-19
2023/07/28 01:44:26;;;;;;;;;;;;;;;;;;1271324;23;20336;-20
2023/07/28 01:44:57;;;;;;;;;;;;;;;;;;1271102;23;20287;-18
2023/07/28 01:45:27;;;;;;;;;;;;;;;;;;1271798;23;20367;-18
2023/07/28 01:45:57;;;;;;;;;;;;;;;;;;1271545;23;20007;-17
2023/07/28 01:46:27;;;;;;;;;;;;;;;;;;1271843;23;19911;-19
2023/07/28 01:46:58;;;;;;;;;;;;;;;;;;1271528;23;19905;-18
2023/07/28 01:47:29;;;;;;;;;;;;;;;;;;1271812;23;19905;-20
2023/07/28 01:47:59;;;;;;;;;;;;;;;;;;1271490;23;19932;-18
2023/07/28 01:48:29;;;;;;;;;;;;;;;;;;1271832;23;20445;-17
2023/07/28 01:48:59;;;;;;;;;;;;;;;;;;1271562;23;19905;-18
2023/07/28 01:49:30;;;;;;;;;;;;;;;;;;1271799;23;19904;-17
2023/07/28 01:50:00;;;;;;;;;;;;;;;;;;1271513;23;19905;-20
2023/07/28 01:50:30;;;;;;;;;;;;;;;;;;1271719;23;19909;-19
2023/07/28 01:51:00;;;;;;;;;;;;;;;;;;1271585;23;19901;-16
2023/07/28 01:51:31;;;;;;;;;;;;;;;;;;1271749;23;19905;-20
2023/07/28 01:52:01;;;;;;;;;;;;;;;;;;1271609;23;19911;-19
2023/07/28 01:52:31;;;;;;;;;;;;;;;;;;1271811;23;19905;-20
2023/07/28 01:53:01;;;;;;;;;;;;;;;;;;1271557;23;20344;-17
2023/07/28 01:53:31;;;;;;;;;;;;;;;;;;1271611;23;20317;-18
2023/07/28 01:54:02;;;;;;;;;;;;;;;;;;1271581;23;20237;-17
2023/07/28 01:54:32;;;;;;;;;;;;;;;;;;1265215;23;19936;-16
2023/07/28 01:55:02;;;;;;;;;;;;;;;;;;1265192;23;20300;-17
2023/07/28 01:55:32;;;;;;;;;;;;;;;;;;1265249;23;19909;-19
2023/07/28 01:56:03;;;;;;;;;;;;;;;;;;1265049;23;19909;-16
2023/07/28 01:56:33;;;;;;;;;;;;;;;;;;1271761;23;19905;-17
2023/07/28 01:57:04;;;;;;;;;;;;;;;;;;1271531;23;19905;-18
2023/07/28 01:57:34;;;;;;;;;;;;;;;;;;1271674;23;19912;-19
2023/07/28 01:58:04;;;;;;;;;;;;;;;;;;1271455;23;19958;-20
2023/07/28 01:58:34;;;;;;;;;;;;;;;;;;1271786;23;19911;-18
2023/07/28 01:59:04;;;;;;;;;;;;;;;;;;1271492;23;19905;-18
2023/07/28 01:59:35;;;;;;;;;;;;;;;;;;1271872;23;19996;-18
2023/07/28 02:00:05;;;;;;;;;;;;;;;;;;1264932;23;19991;-18
2023/07/28 02:00:35;;;;;;;;;;;;;;;;;;1265312;23;19909;-19
2023/07/28 02:01:05;;;;;;;;;;;;;;;;;;1264932;23;19988;-17
2023/07/28 02:01:36;;;;;;;;;;;;;;;;;;1265459;23;19905;-19
2023/07/28 02:02:06;;;;;;;;;;;;;;;;;;1271373;23;20372;-20
2023/07/28 02:02:36;;;;;;;;;;;;;;;;;;1271779;23;20318;-17
2023/07/28 02:03:07;;;;;;;;;;;;;;;;;;1271455;23;19991;-20
2023/07/28 02:03:37;;;;;;;;;;;;;;;;;;1271816;23;19904;-20
2023/07/28 02:04:07;;;;;;;;;;;;;;;;;;1271481;23;20344;-18
2023/07/28 02:04:37;;;;;;;;;;;;;;;;;;1271777;23;19905;-16
2023/07/28 02:05:08;;;;;;;;;;;;;;;;;;1271450;23;20363;-19
2023/07/28 02:05:38;;;;;;;;;;;;;;;;;;1271697;23;19991;-17
2023/07/28 02:06:08;;;;;;;;;;;;;;;;;;1271528;23;19912;-16
2023/07/28 02:06:39;;;;;;;;;;;;;;;;;;1271761;23;19913;-18
2023/07/28 02:07:09;;;;;;;;;;;;;;;;;;1271543;23;19912;-21
2023/07/28 02:07:39;;;;;;;;;;;;;;;;;;1271754;23;19912;-20
2023/07/28 02:08:09;;;;;;;;;;;;;;;;;;1271471;23;19912;-16
2023/07/28 02:08:40;;;;;;;;;;;;;;;;;;1271755;23;20241;-19
2023/07/28 02:09:10;;;;;;;;;;;;;;;;;;1271493;23;19911;-19
2023/07/28 02:09:40;;;;;;;;;;;;;;;;;;1271815;23;19909;-21
2023/07/28 02:10:10;;;;;;;;;;;;;;;;;;1271531;23;19904;-20
2023/07/28 02:10:40;;;;;;;;;;;;;;;;;;1271123;23;19950;-18
2023/07/28 02:11:11;;;;;;;;;;;;;;;;;;1270994;23;19905;-17
2023/07/28 02:11:41;;;;;;;;;;;;;;;;;;1271631;23;19912;-19
2023/07/28 02:12:11;;;;;;;;;;;;;;;;;;1271542;23;19905;-17
2023/07/28 02:12:42;;;;;;;;;;;;;;;;;;1271809;23;19916;-16
2023/07/28 02:13:12;;;;;;;;;;;;;;;;;;1271263;23;19913;-18
2023/07/28 02:13:42;;;;;;;;;;;;;;;;;;1271566;23;19916;-17
2023/07/28 02:14:12;;;;;;;;;;;;;;;;;;1271484;23;19940;-18
2023/07/28 02:14:42;;;;;;;;;;;;;;;;;;1271751;23;19919;-18
2023/07/28 02:15:13;;;;;;;;;;;;;;;;;;1271492;23;20035;-18
2023/07/28 02:15:43;;;;;;;;;;;;;;;;;;1271623;23;19912;-17
2023/07/28 02:16:14;;;;;;;;;;;;;;;;;;1271516;23;19996;-19
2023/07/28 02:16:44;;;;;;;;;;;;;;;;;;1271630;23;19923;-17
2023/07/28 02:17:14;;;;;;;;;;;;;;;;;;1271495;23;19900;-17
2023/07/28 02:17:44;;;;;;;;;;;;;;;;;;1271730;23;20329;-19
2023/07/28 02:18:14;;;;;;;;;;;;;;;;;;1271509;23;20240;-20
2023/07/28 02:18:45;;;;;;;;;;;;;;;;;;1271698;23;19908;-18
2023/07/28 02:19:15;;;;;;;;;;;;;;;;;;1271284;23;19908;-19
2023/07/28 02:19:45;;;;;;;;;;;;;;;;;;1271755;23;19915;-19
2023/07/28 02:20:16;;;;;;;;;;;;;;;;;;1271304;23;19904;-18
2023/07/28 02:20:46;;;;;;;;;;;;;;;;;;1271682;23;19912;-19
2023/07/28 02:21:16;;;;;;;;;;;;;;;;;;1271258;23;20313;-18
2023/07/28 02:21:46;;;;;;;;;;;;;;;;;;1271468;23;19909;-18
2023/07/28 02:22:16;;;;;;;;;;;;;;;;;;1271547;23;20333;-18
2023/07/28 02:22:47;;;;;;;;;;;;;;;;;;1271673;23;20377;-21
2023/07/28 02:23:17;;;;;;;;;;;;;;;;;;1271518;23;20375;-17
2023/07/28 02:23:47;;;;;;;;;;;;;;;;;;1271730;23;20329;-20
2023/07/28 02:24:17;;;;;;;;;;;;;;;;;;1271563;23;19936;-20
2023/07/28 02:24:48;;;;;;;;;;;;;;;;;;1265162;23;19996;-20
2023/07/28 02:25:18;;;;;;;;;;;;;;;;;;1265046;23;20293;-19
2023/07/28 02:25:48;;;;;;;;;;;;;;;;;;1265266;23;20261;-20
2023/07/28 02:26:18;;;;;;;;;;;;;;;;;;1265112;23;19905;-19
2023/07/28 02:26:49;;;;;;;;;;;;;;;;;;1271787;23;19912;-19
2023/07/28 02:27:19;;;;;;;;;;;;;;;;;;1271934;23;19940;-20
2023/07/28 02:27:49;;;;;;;;;;;;;;;;;;1271791;23;20031;-19
2023/07/28 02:28:20;;;;;;;;;;;;;;;;;;1265339;23;19919;-19
2023/07/28 02:28:50;;;;;;;;;;;;;;;;;;1265333;23;20379;-21
2023/07/28 02:29:20;;;;;;;;;;;;;;;;;;1265536;23;20314;-19
2023/07/28 02:29:50;;;;;;;;;;;;;;;;;;1264935;23;19905;-17
2023/07/28 02:30:20;;;;;;;;;;;;;;;;;;1271694;23;19904;-19
2023/07/28 02:30:51;;;;;;;;;;;;;;;;;;1271706;23;19905;-18
2023/07/28 02:31:21;;;;;;;;;;;;;;;;;;1272001;23;19905;-16
2023/07/28 02:31:51;;;;;;;;;;;;;;;;;;1271771;23;19912;-21
2023/07/28 02:32:21;;;;;;;;;;;;;;;;;;1272074;23;19909;-20
2023/07/28 02:32:52;;;;;;;;;;;;;;;;;;1271604;23;19912;-20
2023/07/28 02:33:22;;;;;;;;;;;;;;;;;;1271958;23;19908;-18
2023/07/28 02:33:52;;;;;;;;;;;;;;;;;;1271943;23;19920;-17
2023/07/28 02:34:22;;;;;;;;;;;;;;;;;;1272054;23;19920;-17
2023/07/28 02:34:52;;;;;;;;;;;;;;;;;;1271870;23;19944;-20
2023/07/28 02:35:23;;;;;;;;;;;;;;;;;;1271948;23;19936;-19
2023/07/28 02:35:53;;;;;;;;;;;;;;;;;;1271868;23;20026;-17
2023/07/28 02:36:23;;;;;;;;;;;;;;;;;;1272148;23;19904;-20
2023/07/28 02:36:53;;;;;;;;;;;;;;;;;;1271714;23;19911;-19
2023/07/28 02:37:24;;;;;;;;;;;;;;;;;;1271985;23;19904;-21
2023/07/28 02:37:54;;;;;;;;;;;;;;;;;;1271678;23;19905;-18
2023/07/28 02:38:24;;;;;;;;;;;;;;;;;;1272070;23;20340;-17
2023/07/28 02:38:54;;;;;;;;;;;;;;;;;;1265189;23;19915;-17
2023/07/28 02:39:25;;;;;;;;;;;;;;;;;;1265596;23;19905;-20
2023/07/28 02:39:55;;;;;;;;;;;;;;;;;;1265306;23;19905;-17
2023/07/28 02:40:25;;;;;;;;;;;;;;;;;;1265522;23;19987;-17
2023/07/28 02:40:56;;;;;;;;;;;;;;;;;;1271782;23;19905;-21
2023/07/28 02:41:26;;;;;;;;;;;;;;;;;;1271871;23;19904;-21
2023/07/28 02:41:56;;;;;;;;;;;;;;;;;;1271779;23;19905;-18
2023/07/28 02:42:26;;;;;;;;;;;;;;;;;;1272025;23;19911;-19
2023/07/28 02:42:58;;;;;;;;;;;;;;;;;;1271753;23;20344;-21
2023/07/28 02:43:28;;;;;;;;;;;;;;;;;;1265431;23;20363;-19
2023/07/28 02:43:58;;;;;;;;;;;;;;;;;;1265311;23;19912;-19
2023/07/28 02:44:29;;;;;;;;;;;;;;;;;;1265573;23;19987;-17
2023/07/28 02:44:59;;;;;;;;;;;;;;;;;;1265269;23;19936;-20
2023/07/28 02:45:29;;;;;;;;;;;;;;;;;;1271932;23;19935;-19
2023/07/28 02:46:00;;;;;;;;;;;;;;;;;;1271762;23;20547;-19
2023/07/28 02:46:30;;;;;;;;;;;;;;;;;;1272036;23;19911;-19
2023/07/28 02:47:00;;;;;;;;;;;;;;;;;;1271755;23;19912;-16
2023/07/28 02:47:31;;;;;;;;;;;;;;;;;;1271647;23;19904;-18
2023/07/28 02:48:01;;;;;;;;;;;;;;;;;;1271703;23;19905;-20
2023/07/28 02:48:31;;;;;;;;;;;;;;;;;;1271880;23;19905;-17
2023/07/28 02:49:03;;;;;;;;;;;;;;;;;;1271806;23;19950;-20
2023/07/28 02:49:33;;;;;;;;;;;;;;;;;;1271918;23;19904;-18
2023/07/28 02:50:04;;;;;;;;;;;;;;;;;;1271719;23;19935;-18
2023/07/28 02:50:34;;;;;;;;;;;;;;;;;;1271874;23;19908;-20
2023/07/28 02:51:04;;;;;;;;;;;;;;;;;;1271527;23;19905;-17
2023/07/28 02:51:34;;;;;;;;;;;;;;;;;;1271769;23;19997;-19
2023/07/28 02:52:05;;;;;;;;;;;;;;;;;;1271588;23;19905;-20
2023/07/28 02:52:35;;;;;;;;;;;;;;;;;;1271792;23;19912;-18
2023/07/28 02:53:05;;;;;;;;;;;;;;;;;;1271564;23;19950;-18
2023/07/28 02:53:35;;;;;;;;;;;;;;;;;;1271717;23;20359;-20
2023/07/28 02:54:06;;;;;;;;;;;;;;;;;;1271650;23;19927;-19
2023/07/28 02:54:36;;;;;;;;;;;;;;;;;;1271910;23;19904;-19
2023/07/28 02:55:06;;;;;;;;;;;;;;;;;;1271619;23;19928;-21
2023/07/28 02:55:36;;;;;;;;;;;;;;;;;;1271848;23;19915;-21
2023/07/28 02:56:07;;;;;;;;;;;;;;;;;;1271565;23;19905;-16
2023/07/28 02:56:38;;;;;;;;;;;;;;;;;;1271920;23;19911;-17
2023/07/28 02:57:08;;;;;;;;;;;;;;;;;;1271657;23;19905;-20
2023/07/28 02:57:38;;;;;;;;;;;;;;;;;;1271863;23;20237;-18
2023/07/28 02:58:09;;;;;;;;;;;;;;;;;;1271632;23;19905;-20
2023/07/28 02:58:39;;;;;;;;;;;;;;;;;;1271940;23;19944;-21
2023/07/28 02:59:09;;;;;;;;;;;;;;;;;;1271660;23;19984;-20
2023/07/28 02:59:39;;;;;;;;;;;;;;;;;;1271929;23;19912;-19
2023/07/28 03:00:10;;;;;;;;;;;;;;;;;;1271524;23;20322;-18
2023/07/28 03:00:40;;;;;;;;;;;;;;;;;;1271912;23;20630;-18
2023/07/28 03:01:11;;;;;;;;;;;;;;;;;;1271776;23;19911;-18
2023/07/28 03:01:41;;;;;;;;;;;;;;;;;;1271681;23;19908;-16
2023/07/28 03:02:11;;;;;;;;;;;;;;;;;;1271171;23;19905;-20
2023/07/28 03:02:42;;;;;;;;;;;;;;;;;;1271489;23;19908;-20
2023/07/28 03:03:12;;;;;;;;;;;;;;;;;;1271507;23;19913;-18
2023/07/28 03:03:42;;;;;;;;;;;;;;;;;;1271735;23;20237;-17
2023/07/28 03:04:12;;;;;;;;;;;;;;;;;;1271732;23;19913;-21
2023/07/28 03:04:43;;;;;;;;;;;;;;;;;;1271808;23;19916;-20
2023/07/28 03:05:13;;;;;;;;;;;;;;;;;;1271630;23;20447;-18
2023/07/28 03:05:43;;;;;;;;;;;;;;;;;;1264801;23;20106;-21
2023/07/28 03:06:14;;;;;;;;;;;;;;;;;;1264923;23;19904;-20
2023/07/28 03:06:44;;;;;;;;;;;;;;;;;;1265194;23;19909;-18
2023/07/28 03:07:14;;;;;;;;;;;;;;;;;;1265208;23;19991;-18
2023/07/28 03:07:44;;;;;;;;;;;;;;;;;;1271749;23;19914;-21
2023/07/28 03:08:15;;;;;;;;;;;;;;;;;;1271707;23;19904;-18
2023/07/28 03:08:45;;;;;;;;;;;;;;;;;;1271918;23;19916;-20
2023/07/28 03:09:15;;;;;;;;;;;;;;;;;;1271799;23;19958;-16
2023/07/28 03:09:45;;;;;;;;;;;;;;;;;;1271963;23;19909;-19
2023/07/28 03:10:18;;;;;;;;;;;;;;;;;;1271723;23;19905;-17
2023/07/28 03:10:48;;;;;;;;;;;;;;;;;;1271848;23;19909;-18
2023/07/28 03:11:19;;;;;;;;;;;;;;;;;;1271791;23;20322;-19
2023/07/28 03:11:49;;;;;;;;;;;;;;;;;;1271837;23;19909;-19
2023/07/28 03:12:19;;;;;;;;;;;;;;;;;;1271818;23;19905;-19
2023/07/28 03:12:50;;;;;;;;;;;;;;;;;;1271782;23;20306;-19
2023/07/28 03:13:20;;;;;;;;;;;;;;;;;;1271861;23;20340;-20
2023/07/28 03:13:50;;;;;;;;;;;;;;;;;;1271343;23;20011;-17
2023/07/28 03:14:20;;;;;;;;;;;;;;;;;;1271510;23;19904;-16
2023/07/28 03:14:50;;;;;;;;;;;;;;;;;;1271727;23;19905;-21
2023/07/28 03:15:21;;;;;;;;;;;;;;;;;;1271933;23;20332;-19
2023/07/28 03:15:52;;;;;;;;;;;;;;;;;;1271781;23;19911;-17
2023/07/28 03:16:22;;;;;;;;;;;;;;;;;;1271874;23;19913;-20
2023/07/28 03:16:52;;;;;;;;;;;;;;;;;;1271788;23;19962;-17
2023/07/28 03:17:22;;;;;;;;;;;;;;;;;;1271800;23;19934;-19
2023/07/28 03:17:54;;;;;;;;;;;;;;;;;;1271752;23;19904;-19
2023/07/28 03:18:24;;;;;;;;;;;;;;;;;;1271663;23;19904;-19
2023/07/28 03:18:54;;;;;;;;;;;;;;;;;;1271098;23;20233;-18
2023/07/28 03:19:25;;;;;;;;;;;;;;;;;;1271930;23;20214;-17
2023/07/28 03:19:55;;;;;;;;;;;;;;;;;;1271786;23;19909;-18
2023/07/28 03:20:25;;;;;;;;;;;;;;;;;;1271732;23;19905;-20
2023/07/28 03:20:55;;;;;;;;;;;;;;;;;;1271760;23;19905;-19
2023/07/28 03:21:26;;;;;;;;;;;;;;;;;;1271790;23;19959;-20
2023/07/28 03:21:56;;;;;;;;;;;;;;;;;;1271269;23;19999;-21
2023/07/28 03:22:26;;;;;;;;;;;;;;;;;;1271673;23;19995;-19
2023/07/28 03:22:56;;;;;;;;;;;;;;;;;;1271430;23;19905;-17
2023/07/28 03:23:27;;;;;;;;;;;;;;;;;;1271911;23;19942;-17
2023/07/28 03:23:57;;;;;;;;;;;;;;;;;;1271664;23;19905;-20
2023/07/28 03:24:27;;;;;;;;;;;;;;;;;;1271741;23;20301;-18
2023/07/28 03:24:58;;;;;;;;;;;;;;;;;;1271340;23;20218;-20
2023/07/28 03:25:28;;;;;;;;;;;;;;;;;;1271579;23;20340;-18
2023/07/28 03:25:58;;;;;;;;;;;;;;;;;;1271561;23;19922;-19
2023/07/28 03:26:28;;;;;;;;;;;;;;;;;;1271826;23;19905;-20
2023/07/28 03:26:59;;;;;;;;;;;;;;;;;;1271717;23;19912;-21